Oberpullendorf, Austria
Current Conditions -  °F | °C
As of 5:50 AM on Friday 28 Nov 2014 (Local Time) from LOWW Reporting Station
Drizzle Drizzle  
Wind Chill: 25°   Ceiling: 300
Heat Index: 34°   Visibility: 1.8mi
Dew Point: 34°   Wind: 12mph
Humidity: 100%   Direction: 110°ESE
Pressure: 30"   Gusts: NA
Location:  47.5°N, 16.5°E
Report Text: LOWW 280350Z 11010KT 2900 -DZ BR SCT002 BKN003 01/01 Q1016 TEMPO 2000 BKN002 OVC003
Loading
Personal Weather Stations






























Interactive Weather Map New forecast layout! Learn more

10-Day Weather Forecast

Advertisements
Track Severe Weather on mobile